createdAt,value
2023-03-29T00:00:16.193Z,100822.22
2023-03-29T00:02:47.910Z,100822.88
2023-03-29T00:05:22.589Z,100815.31
2023-03-29T00:07:53.562Z,100815.81
2023-03-29T00:10:23.577Z,100812.25
2023-03-29T00:12:52.452Z,100805.84
2023-03-29T00:15:23.266Z,100808.72
2023-03-29T00:17:51.853Z,100800.34
2023-03-29T00:20:20.389Z,100808.00
2023-03-29T00:22:49.275Z,100806.38
2023-03-29T00:25:17.759Z,100809.97
2023-03-29T00:27:46.587Z,100789.22
2023-03-29T00:30:15.497Z,100788.69
2023-03-29T00:32:46.825Z,100798.47
2023-03-29T00:35:16.074Z,100788.75
2023-03-29T00:37:46.676Z,100788.28
2023-03-29T00:40:16.383Z,100785.78
2023-03-29T00:42:46.732Z,100782.13
2023-03-29T00:45:24.781Z,100781.06
2023-03-29T00:47:59.499Z,100781.78
2023-03-29T00:50:31.460Z,100778.44
2023-03-29T00:53:05.058Z,100775.81
2023-03-29T00:55:37.569Z,100773.34
2023-03-29T00:58:09.522Z,100765.31
2023-03-29T01:00:44.292Z,100765.00
2023-03-29T01:03:24.111Z,100760.06
2023-03-29T01:05:57.317Z,100757.91
2023-03-29T01:08:31.116Z,100746.34
2023-03-29T01:11:04.994Z,100743.81
2023-03-29T01:13:39.304Z,100751.94
2023-03-29T01:16:10.799Z,100737.75
2023-03-29T01:18:41.874Z,100738.31
2023-03-29T01:21:20.523Z,100730.44
2023-03-29T01:24:06.248Z,100729.63
2023-03-29T01:26:45.301Z,100726.78
2023-03-29T01:29:21.926Z,100722.44
2023-03-29T01:31:57.942Z,100729.34
2023-03-29T01:34:31.674Z,100716.00
2023-03-29T01:37:07.587Z,100699.38
2023-03-29T01:39:36.669Z,100705.69
2023-03-29T01:42:17.073Z,100701.69
2023-03-29T01:44:56.451Z,100696.44
2023-03-29T01:47:34.937Z,100696.78
2023-03-29T01:50:13.991Z,100697.22
2023-03-29T01:52:47.983Z,100690.63
2023-03-29T01:55:20.164Z,100680.19
2023-03-29T01:57:54.380Z,100690.03
2023-03-29T02:00:28.969Z,100694.72
2023-03-29T02:03:04.724Z,100679.38
2023-03-29T02:05:35.226Z,100678.25
2023-03-29T02:08:10.403Z,100686.22
2023-03-29T02:10:40.095Z,100671.25
2023-03-29T02:13:08.623Z,100671.25
2023-03-29T02:15:39.419Z,100688.41
2023-03-29T02:18:10.150Z,100683.72
2023-03-29T02:20:41.908Z,100681.53
2023-03-29T02:23:17.648Z,100676.75
2023-03-29T02:25:47.224Z,100680.06
2023-03-29T02:28:16.728Z,100671.03
2023-03-29T02:30:55.284Z,100674.00
2023-03-29T02:33:30.685Z,100656.84
2023-03-29T02:36:04.742Z,100668.53
2023-03-29T02:38:33.910Z,100673.34
2023-03-29T02:41:03.457Z,100669.78
2023-03-29T02:43:33.915Z,100676.66
2023-03-29T02:46:05.820Z,100668.78
2023-03-29T02:48:37.166Z,100666.25
2023-03-29T02:51:11.761Z,100663.06
2023-03-29T02:53:44.270Z,100658.97
2023-03-29T02:56:12.649Z,100650.28
2023-03-29T02:58:41.163Z,100645.69
2023-03-29T03:01:12.404Z,100643.19
2023-03-29T03:03:41.261Z,100644.31
2023-03-29T03:06:10.186Z,100631.63
2023-03-29T03:08:38.528Z,100637.47
2023-03-29T03:11:07.929Z,100637.69
2023-03-29T03:13:36.590Z,100637.47
2023-03-29T03:16:05.064Z,100631.63
2023-03-29T03:18:35.675Z,100629.56
2023-03-29T03:21:05.238Z,100633.94
2023-03-29T03:23:34.148Z,100632.41
2023-03-29T03:26:02.760Z,100625.47
2023-03-29T03:28:32.909Z,100632.19
2023-03-29T03:31:02.298Z,100625.00
2023-03-29T03:33:52.479Z,100629.34
2023-03-29T03:36:46.764Z,100618.50
2023-03-29T03:39:15.910Z,100625.78
2023-03-29T03:41:44.502Z,100619.16
2023-03-29T03:44:12.891Z,100627.06
2023-03-29T03:46:41.928Z,100623.50
2023-03-29T03:49:12.337Z,100627.63
2023-03-29T03:51:44.940Z,100619.75
2023-03-29T03:54:13.791Z,100615.97
2023-03-29T03:57:02.680Z,100616.41
2023-03-29T03:59:42.292Z,100607.16
2023-03-29T04:02:14.550Z,100602.47
2023-03-29T04:04:47.195Z,100610.34
2023-03-29T04:07:19.738Z,100608.31
2023-03-29T04:10:13.450Z,100602.13
2023-03-29T04:12:52.380Z,100599.59
2023-03-29T04:15:22.331Z,100608.19
2023-03-29T04:17:58.300Z,100597.88
2023-03-29T04:20:33.730Z,100597.44
2023-03-29T04:23:02.955Z,100583.25
2023-03-29T04:25:32.020Z,100579.25
2023-03-29T04:28:00.681Z,100577.31
2023-03-29T04:30:42.605Z,100574.09
2023-03-29T04:33:18.399Z,100573.19
2023-03-29T04:35:53.872Z,100572.63
2023-03-29T04:38:24.202Z,100578.00
2023-03-29T04:40:55.728Z,100572.63
2023-03-29T04:43:47.895Z,100572.06
2023-03-29T04:46:27.414Z,100571.13
2023-03-29T04:49:13.948Z,100566.19
2023-03-29T04:51:49.066Z,100547.47
2023-03-29T04:54:22.130Z,100554.75
2023-03-29T04:57:14.886Z,100560.84
2023-03-29T04:59:56.368Z,100559.22
2023-03-29T05:02:51.316Z,100560.03
2023-03-29T05:05:20.544Z,100567.72
2023-03-29T05:07:54.476Z,100566.56
2023-03-29T05:10:28.063Z,100561.09
2023-03-29T05:12:57.874Z,100547.69
2023-03-29T05:15:26.345Z,100567.81
2023-03-29T05:17:54.781Z,100567.38
2023-03-29T05:20:24.461Z,100567.13
2023-03-29T05:22:54.843Z,100558.53
2023-03-29T05:25:43.363Z,100554.31
2023-03-29T05:28:12.339Z,100565.16
2023-03-29T05:30:40.659Z,100559.59
2023-03-29T05:33:21.207Z,100548.84
2023-03-29T05:35:49.616Z,100553.63
2023-03-29T05:38:19.866Z,100552.50
2023-03-29T05:40:49.567Z,100547.13
2023-03-29T05:43:20.511Z,100551.94
2023-03-29T05:45:49.085Z,100555.34
2023-03-29T05:48:17.942Z,100549.31
2023-03-29T05:50:48.839Z,100540.13
2023-03-29T05:53:20.646Z,100543.69
2023-03-29T05:55:49.669Z,100545.28
2023-03-29T05:58:20.982Z,100539.78
2023-03-29T06:00:51.514Z,100536.34
2023-03-29T06:03:40.182Z,100540.78
2023-03-29T06:06:09.911Z,100532.69
2023-03-29T06:08:41.253Z,100526.97
2023-03-29T06:11:35.842Z,100533.81
2023-03-29T06:14:22.813Z,100541.81
2023-03-29T06:16:56.736Z,100539.06
2023-03-29T06:19:26.059Z,100535.16
2023-03-29T06:21:55.788Z,100542.47
2023-03-29T06:24:29.302Z,100532.06
2023-03-29T06:27:03.797Z,100536.28
2023-03-29T06:29:32.786Z,100532.38
2023-03-29T06:32:01.810Z,100545.16
2023-03-29T06:34:47.739Z,100543.22
2023-03-29T06:37:26.066Z,100539.50
2023-03-29T06:40:06.893Z,100537.81
2023-03-29T06:42:42.595Z,100538.38
2023-03-29T06:45:33.836Z,100535.53
2023-03-29T06:48:07.055Z,100541.50
2023-03-29T06:50:37.491Z,100528.19
2023-03-29T06:53:15.099Z,100538.84
2023-03-29T06:55:47.655Z,100527.88
2023-03-29T06:58:35.065Z,100523.53
2023-03-29T07:01:11.101Z,100527.19
2023-03-29T07:03:48.797Z,100525.53
2023-03-29T07:06:21.876Z,100521.88
2023-03-29T07:08:52.886Z,100524.97
2023-03-29T07:11:36.569Z,100527.94
2023-03-29T07:14:20.938Z,100532.88
2023-03-29T07:16:51.408Z,100536.00
2023-03-29T07:19:35.145Z,100531.94
2023-03-29T07:22:17.074Z,100535.94
2023-03-29T07:24:50.596Z,100525.19
2023-03-29T07:27:21.810Z,100526.50
2023-03-29T07:29:51.764Z,100520.94
2023-03-29T07:32:20.928Z,100518.34
2023-03-29T07:34:57.323Z,100512.88
2023-03-29T07:37:33.684Z,100508.50
2023-03-29T07:40:08.475Z,100515.31
2023-03-29T07:42:58.286Z,100511.81
2023-03-29T07:45:32.175Z,100503.78
2023-03-29T07:48:05.339Z,100523.06
2023-03-29T07:50:48.335Z,100511.81
2023-03-29T07:53:19.372Z,100507.94
2023-03-29T07:55:49.412Z,100507.84
2023-03-29T07:58:42.691Z,100513.00
2023-03-29T08:01:17.185Z,100505.97
2023-03-29T08:04:06.707Z,100507.28
2023-03-29T08:07:08.596Z,100503.41
2023-03-29T08:09:56.989Z,100502.31
2023-03-29T08:12:38.751Z,100496.50
2023-03-29T08:15:12.831Z,100498.31
2023-03-29T08:17:42.666Z,100501.31
2023-03-29T08:20:15.355Z,100504.31
2023-03-29T08:22:46.176Z,100503.00
2023-03-29T08:25:32.930Z,100501.22
2023-03-29T08:28:02.936Z,100505.44
2023-03-29T08:30:49.265Z,100501.88
2023-03-29T08:33:17.791Z,100493.00
2023-03-29T08:35:50.359Z,100492.13
2023-03-29T08:38:32.333Z,100499.56
2023-03-29T08:41:00.968Z,100491.88
2023-03-29T08:43:52.980Z,100491.41
2023-03-29T08:46:53.155Z,100487.63
2023-03-29T08:49:46.041Z,100483.38
2023-03-29T08:52:23.816Z,100494.31
2023-03-29T08:54:56.479Z,100494.72
2023-03-29T08:57:37.789Z,100492.63
2023-03-29T09:00:24.800Z,100506.16
2023-03-29T09:02:59.778Z,100502.41
2023-03-29T09:05:34.611Z,100507.50
2023-03-29T09:08:20.809Z,100506.59
2023-03-29T09:11:12.533Z,100507.41
2023-03-29T09:13:51.132Z,100502.53
2023-03-29T09:16:27.859Z,100503.59
2023-03-29T09:19:07.971Z,100505.31
2023-03-29T09:21:46.141Z,100504.16
2023-03-29T09:24:38.022Z,100501.38
2023-03-29T09:27:22.569Z,100507.81
2023-03-29T09:30:04.290Z,100504.75
2023-03-29T09:32:53.875Z,100513.28
2023-03-29T09:35:36.683Z,100501.09
2023-03-29T09:38:08.920Z,100495.78
2023-03-29T09:40:42.819Z,100497.97
2023-03-29T09:43:23.129Z,100497.28
2023-03-29T09:45:59.843Z,100486.16
2023-03-29T09:48:31.296Z,100480.44
2023-03-29T09:51:03.775Z,100481.69
2023-03-29T09:53:32.595Z,100487.41
2023-03-29T09:56:16.571Z,100471.47
2023-03-29T09:58:49.761Z,100464.16
2023-03-29T10:01:20.269Z,100476.38
2023-03-29T10:03:53.006Z,100464.91
2023-03-29T10:06:26.402Z,100464.66
2023-03-29T10:08:59.298Z,100466.38
2023-03-29T10:11:40.100Z,100467.13
2023-03-29T10:14:16.198Z,100463.44
2023-03-29T10:16:47.144Z,100454.06
2023-03-29T10:19:21.944Z,100459.13
2023-03-29T10:21:53.562Z,100462.16
2023-03-29T10:24:22.495Z,100456.09
2023-03-29T10:26:55.247Z,100448.66
2023-03-29T10:29:25.423Z,100444.84
2023-03-29T10:31:54.471Z,100452.28
2023-03-29T10:34:27.613Z,100449.66
2023-03-29T10:37:01.698Z,100442.25
2023-03-29T10:39:35.197Z,100442.53
2023-03-29T10:42:08.113Z,100443.97
2023-03-29T10:44:38.186Z,100440.38
2023-03-29T10:47:12.522Z,100441.84
2023-03-29T10:49:48.061Z,100458.06
2023-03-29T10:52:18.869Z,100458.91
2023-03-29T10:54:48.164Z,100447.09
2023-03-29T10:57:23.705Z,100445.72
2023-03-29T10:59:59.323Z,100454.44
2023-03-29T11:03:04.121Z,100447.88
2023-03-29T11:05:40.497Z,100442.78
2023-03-29T11:08:33.412Z,100449.84
2023-03-29T11:11:17.094Z,100445.28
2023-03-29T11:13:53.478Z,100438.91
2023-03-29T11:16:30.061Z,100439.84
2023-03-29T11:19:31.041Z,100429.00
2023-03-29T11:22:09.255Z,100422.56
2023-03-29T11:24:56.014Z,100419.13
2023-03-29T11:27:34.274Z,100419.97
2023-03-29T11:30:10.213Z,100409.09
2023-03-29T11:32:49.491Z,100403.81
2023-03-29T11:35:39.341Z,100401.19
2023-03-29T11:38:17.462Z,100389.31
2023-03-29T11:40:59.042Z,100394.13
2023-03-29T11:43:31.953Z,100382.31
2023-03-29T11:46:04.328Z,100379.53
2023-03-29T11:48:38.280Z,100396.94
2023-03-29T11:51:12.818Z,100379.66
2023-03-29T11:53:50.734Z,100381.91
2023-03-29T11:56:28.881Z,100383.25
2023-03-29T11:59:04.196Z,100393.44
2023-03-29T12:01:37.005Z,100386.41
2023-03-29T12:04:12.831Z,100389.75
2023-03-29T12:06:47.994Z,100384.97
2023-03-29T12:09:27.096Z,100383.34
2023-03-29T12:12:04.972Z,100377.44
2023-03-29T12:14:51.273Z,100374.22
2023-03-29T12:17:26.431Z,100376.22
2023-03-29T12:20:04.106Z,100384.19
2023-03-29T12:22:34.147Z,100379.41
2023-03-29T12:25:06.512Z,100368.31
2023-03-29T12:27:41.321Z,100373.06
2023-03-29T12:30:26.779Z,100361.97
2023-03-29T12:33:17.365Z,100368.34
2023-03-29T12:36:21.300Z,100374.66
2023-03-29T12:39:26.315Z,100367.13
2023-03-29T12:42:18.276Z,100356.41
2023-03-29T12:45:19.642Z,100361.13
2023-03-29T12:47:49.483Z,100356.00
2023-03-29T12:50:27.869Z,100359.59
2023-03-29T12:53:07.639Z,100352.47
2023-03-29T12:55:50.541Z,100340.53
2023-03-29T12:58:37.992Z,100350.88
2023-03-29T13:01:11.190Z,100339.75
2023-03-29T13:03:51.263Z,100337.78
2023-03-29T13:06:32.552Z,100335.78
2023-03-29T13:09:04.579Z,100328.66
2023-03-29T13:11:40.170Z,100333.81
2023-03-29T13:14:16.099Z,100329.03
2023-03-29T13:16:46.806Z,100329.03
2023-03-29T13:19:35.758Z,100335.72
2023-03-29T13:22:21.224Z,100333.78
2023-03-29T13:25:10.054Z,100331.78
2023-03-29T13:27:51.289Z,100335.69
2023-03-29T13:30:27.270Z,100336.19
2023-03-29T13:33:16.006Z,100335.00
2023-03-29T13:35:53.121Z,100321.09
2023-03-29T13:38:25.884Z,100325.50
2023-03-29T13:41:03.029Z,100323.13
2023-03-29T13:43:34.656Z,100316.78
2023-03-29T13:46:26.001Z,100324.69
2023-03-29T13:49:02.514Z,100322.34
2023-03-29T13:51:38.770Z,100318.34
2023-03-29T13:54:33.857Z,100317.16
2023-03-29T13:57:10.311Z,100315.19
2023-03-29T13:59:46.768Z,100319.53
2023-03-29T14:02:23.354Z,100310.44
2023-03-29T14:04:55.422Z,100310.44
2023-03-29T14:07:25.957Z,100305.69
2023-03-29T14:09:57.567Z,100307.69
2023-03-29T14:12:28.794Z,100313.22
2023-03-29T14:15:03.184Z,100312.84
2023-03-29T14:17:33.339Z,100306.47
2023-03-29T14:20:08.457Z,100308.06
2023-03-29T14:22:37.294Z,100311.59
2023-03-29T14:25:13.700Z,100310.41
2023-03-29T14:27:43.303Z,100300.09
2023-03-29T14:30:26.837Z,100311.94
2023-03-29T14:32:56.254Z,100305.19
2023-03-29T14:35:34.488Z,100313.56
2023-03-29T14:38:03.797Z,100315.91
2023-03-29T14:40:33.433Z,100313.94
2023-03-29T14:43:07.452Z,100311.13
2023-03-29T14:45:36.145Z,100316.69
2023-03-29T14:48:05.154Z,100325.41
2023-03-29T14:50:35.967Z,100320.22
2023-03-29T14:53:05.543Z,100328.91
2023-03-29T14:55:36.036Z,100322.19
2023-03-29T14:58:04.371Z,100318.25
2023-03-29T15:00:41.789Z,100321.41
2023-03-29T15:03:15.400Z,100323.00
2023-03-29T15:05:50.630Z,100316.59
2023-03-29T15:08:24.965Z,100318.16
2023-03-29T15:10:53.415Z,100315.03
2023-03-29T15:13:25.367Z,100315.84
2023-03-29T15:15:57.391Z,100311.91
2023-03-29T15:18:33.867Z,100308.34
2023-03-29T15:21:04.583Z,100309.56
2023-03-29T15:23:38.230Z,100300.03
2023-03-29T15:26:14.725Z,100300.03
2023-03-29T15:28:48.413Z,100305.59
2023-03-29T15:31:20.534Z,100293.25
2023-03-29T15:33:48.970Z,100294.88
2023-03-29T15:36:19.259Z,100303.91
2023-03-29T15:38:50.150Z,100293.63
2023-03-29T15:41:18.634Z,100297.56
2023-03-29T15:43:46.836Z,100294.38
2023-03-29T15:46:15.911Z,100292.03
2023-03-29T15:48:44.589Z,100286.88
2023-03-29T15:51:13.365Z,100293.22
2023-03-29T15:53:43.716Z,100287.25
2023-03-29T15:56:18.922Z,100285.66
2023-03-29T15:58:49.082Z,100276.19
2023-03-29T16:01:33.437Z,100265.50
2023-03-29T16:04:02.199Z,100250.91
2023-03-29T16:06:30.460Z,100254.13
2023-03-29T16:09:00.816Z,100252.53
2023-03-29T16:11:29.802Z,100241.47
2023-03-29T16:13:58.889Z,100228.41
2023-03-29T16:16:27.575Z,100230.78
2023-03-29T16:18:55.905Z,100225.63
2023-03-29T16:21:25.106Z,100222.06
2023-03-29T16:23:53.551Z,100224.44
2023-03-29T16:26:25.609Z,100231.59
2023-03-29T16:28:54.070Z,100230.41
2023-03-29T16:31:23.005Z,100227.22
2023-03-29T16:33:51.964Z,100228.81
2023-03-29T16:36:20.432Z,100224.88
2023-03-29T16:38:48.830Z,100220.13
2023-03-29T16:41:18.914Z,100224.47
2023-03-29T16:43:49.182Z,100224.06
2023-03-29T16:46:17.688Z,100228.03
2023-03-29T16:48:46.102Z,100210.59
2023-03-29T16:51:14.403Z,100216.53
2023-03-29T16:53:42.762Z,100214.56
2023-03-29T16:56:11.726Z,100210.19
2023-03-29T16:58:40.723Z,100210.19
2023-03-29T17:01:12.952Z,100220.50
2023-03-29T17:03:42.140Z,100210.19
2023-03-29T17:06:12.270Z,100225.63
2023-03-29T17:08:41.918Z,100222.09
2023-03-29T17:11:10.942Z,100223.66
2023-03-29T17:13:40.291Z,100213.38
2023-03-29T17:16:11.339Z,100224.47
2023-03-29T17:18:39.789Z,100227.63
2023-03-29T17:21:09.086Z,100215.38
2023-03-29T17:23:37.516Z,100227.63
2023-03-29T17:26:06.523Z,100231.59
2023-03-29T17:28:35.530Z,100222.88
2023-03-29T17:31:08.647Z,100227.63
2023-03-29T17:33:39.073Z,100229.63
2023-03-29T17:36:09.128Z,100226.06
2023-03-29T17:38:37.969Z,100221.69
2023-03-29T17:41:07.749Z,100220.09
2023-03-29T17:43:36.425Z,100222.47
2023-03-29T17:46:05.271Z,100224.06
2023-03-29T17:48:34.250Z,100220.13
2023-03-29T17:51:04.916Z,100213.78
2023-03-29T17:53:33.577Z,100209.41
2023-03-29T17:56:02.304Z,100202.69
2023-03-29T17:58:31.489Z,100202.72
2023-03-29T18:01:00.244Z,100193.59
2023-03-29T18:03:28.967Z,100190.84
2023-03-29T18:05:58.089Z,100187.25
2023-03-29T18:08:28.603Z,100177.34
2023-03-29T18:10:57.164Z,100181.31
2023-03-29T18:13:26.120Z,100171.03
2023-03-29T18:15:57.256Z,100175.75
2023-03-29T18:18:26.184Z,100157.94
2023-03-29T18:20:54.604Z,100156.75
2023-03-29T18:23:23.160Z,100155.16
2023-03-29T18:25:53.617Z,100152.00
2023-03-29T18:28:24.492Z,100152.41
2023-03-29T18:30:53.087Z,100152.38
2023-03-29T18:33:21.594Z,100158.75
2023-03-29T18:35:51.368Z,100152.78
2023-03-29T18:38:21.008Z,100164.69
2023-03-29T18:40:49.573Z,100157.56
2023-03-29T18:43:20.182Z,100169.06
2023-03-29T18:45:49.172Z,100173.38
2023-03-29T18:48:17.645Z,100180.94
2023-03-29T18:50:46.674Z,100181.69
2023-03-29T18:53:15.423Z,100182.88
2023-03-29T18:55:44.411Z,100189.22
2023-03-29T18:58:13.510Z,100181.69
2023-03-29T19:00:44.725Z,100187.25
2023-03-29T19:03:13.279Z,100183.28
2023-03-29T19:05:42.776Z,100193.97
2023-03-29T19:08:11.299Z,100187.63
2023-03-29T19:10:40.806Z,100181.69
2023-03-29T19:13:09.199Z,100173.78
2023-03-29T19:15:39.461Z,100171.00
2023-03-29T19:18:10.020Z,100178.94
2023-03-29T19:20:39.144Z,100178.94
2023-03-29T19:23:07.530Z,100168.59
2023-03-29T19:25:36.127Z,100168.59
2023-03-29T19:28:04.969Z,100172.16
2023-03-29T19:30:33.220Z,100176.50
2023-03-29T19:33:01.664Z,100169.75
2023-03-29T19:35:32.316Z,100161.81
2023-03-29T19:38:03.808Z,100163.81
2023-03-29T19:40:32.253Z,100161.84
2023-03-29T19:43:00.893Z,100146.41
2023-03-29T19:45:29.857Z,100159.84
2023-03-29T19:48:02.830Z,100155.91
2023-03-29T19:50:34.003Z,100162.22
2023-03-29T19:53:02.278Z,100150.34
2023-03-29T19:55:30.606Z,100145.22
2023-03-29T19:57:59.346Z,100149.97
2023-03-29T20:00:27.972Z,100139.28
2023-03-29T20:02:56.455Z,100133.72
2023-03-29T20:05:25.575Z,100130.97
2023-03-29T20:07:55.896Z,100117.09
2023-03-29T20:10:24.407Z,100118.66
2023-03-29T20:12:52.810Z,100104.34
2023-03-29T20:15:24.929Z,100099.19
2023-03-29T20:17:55.330Z,100103.53
2023-03-29T20:20:27.911Z,100100.75
2023-03-29T20:23:03.699Z,100100.38
2023-03-29T20:25:33.644Z,100099.94
2023-03-29T20:28:01.985Z,100099.53
2023-03-29T20:30:30.593Z,100103.09
2023-03-29T20:32:58.917Z,100106.66
2023-03-29T20:35:27.887Z,100103.50
2023-03-29T20:38:00.560Z,100104.31
2023-03-29T20:40:29.606Z,100101.91
2023-03-29T20:42:58.021Z,100095.53
2023-03-29T20:45:27.041Z,100095.16
2023-03-29T20:48:01.876Z,100096.75
2023-03-29T20:50:30.745Z,100082.94
2023-03-29T20:53:03.113Z,100082.13
2023-03-29T20:55:32.747Z,100072.66
2023-03-29T20:58:02.155Z,100067.13
2023-03-29T21:00:33.216Z,100067.56
2023-03-29T21:03:04.371Z,100063.19
2023-03-29T21:05:34.740Z,100055.69
2023-03-29T21:08:05.170Z,100050.16
2023-03-29T21:10:36.000Z,100050.13
2023-03-29T21:13:04.370Z,100043.78
2023-03-29T21:15:33.153Z,100035.06
2023-03-29T21:18:09.651Z,100030.72
2023-03-29T21:20:39.090Z,100028.78
2023-03-29T21:23:09.444Z,100039.06
2023-03-29T21:25:37.962Z,100064.31
2023-03-29T21:28:06.214Z,100042.19
2023-03-29T21:30:34.993Z,100039.81
2023-03-29T21:33:03.592Z,100037.84
2023-03-29T21:35:32.803Z,100044.97
2023-03-29T21:38:01.518Z,100046.94
2023-03-29T21:40:31.733Z,100041.03
2023-03-29T21:43:00.169Z,100030.75
2023-03-29T21:45:28.572Z,100024.06
2023-03-29T21:47:58.577Z,100004.69
2023-03-29T21:50:27.140Z,100013.41
2023-03-29T21:52:55.510Z,100013.41
2023-03-29T21:55:23.924Z,100006.28
2023-03-29T21:57:54.206Z,100005.91
2023-03-29T22:00:22.572Z,100006.72
2023-03-29T22:02:51.245Z,100007.13
2023-03-29T22:05:19.957Z,100007.50
2023-03-29T22:07:49.925Z,100005.13
2023-03-29T22:10:22.200Z,100007.84
2023-03-29T22:12:51.235Z,100000.69
2023-03-29T22:15:22.122Z,100001.09
2023-03-29T22:17:52.879Z,100007.38
2023-03-29T22:20:21.978Z,100007.00
2023-03-29T22:22:53.616Z,100004.63
2023-03-29T22:25:22.311Z,100014.06
2023-03-29T22:27:51.528Z,100000.25
2023-03-29T22:30:22.286Z,100009.72
2023-03-29T22:32:51.293Z,99999.44
2023-03-29T22:35:20.180Z,100002.22
2023-03-29T22:37:48.570Z,99993.13
2023-03-29T22:40:17.479Z,99968.25
2023-03-29T22:42:45.781Z,99968.69
2023-03-29T22:45:14.465Z,99963.56
2023-03-29T22:47:44.962Z,99958.03
2023-03-29T22:50:13.477Z,99945.81
2023-03-29T22:52:41.780Z,99950.50
2023-03-29T22:55:11.279Z,99943.81
2023-03-29T22:57:39.638Z,99943.00
2023-03-29T23:00:09.950Z,99943.81
2023-03-29T23:02:38.493Z,99941.44
2023-03-29T23:05:10.066Z,99931.16
2023-03-29T23:07:38.644Z,99934.31
2023-03-29T23:10:08.619Z,99938.28
2023-03-29T23:12:37.959Z,99932.75
2023-03-29T23:15:07.976Z,99930.41
2023-03-29T23:17:36.665Z,99920.13
2023-03-29T23:20:07.897Z,99922.91
2023-03-29T23:22:39.256Z,99921.69
2023-03-29T23:25:08.731Z,99918.56
2023-03-29T23:27:39.101Z,99920.09
2023-03-29T23:30:10.172Z,99918.56
2023-03-29T23:32:38.768Z,99916.16
2023-03-29T23:35:08.003Z,99911.06
2023-03-29T23:37:38.880Z,99902.75
2023-03-29T23:40:11.182Z,99908.66
2023-03-29T23:42:40.713Z,99900.00
2023-03-29T23:45:12.279Z,99905.91
2023-03-29T23:47:41.862Z,99903.53
2023-03-29T23:50:12.723Z,99892.88
2023-03-29T23:52:43.376Z,99893.25
2023-03-29T23:55:15.947Z,99879.84
2023-03-29T23:57:44.516Z,99870.34
